Home   Weather   USA   Austin   Past weeks
Flag for USA

Past Weather in Austin, Texas, USA — December 2018

Currently: 75 °F. Mild. (Weather station: Camp Mabry / Austin City, USA). See more current weather

December 2018 Weather in Austin — Graph

°F

High & Low Weather Summary for December 2018

 TemperatureHumidityPressure
High81 °F (Dec 22, 3:51 pm)97% (Dec 18, 5:51 am)30.48 "Hg (Dec 18, 5:51 am)
Low33 °F (Dec 11, 5:51 am)14% (Dec 15, 1:51 pm)29.62 "Hg (Dec 1, 3:51 pm)
Average53 °F68%30.08 "Hg
* Reported Dec 1 12:09 am — Dec 31 11:51 pm, Austin. Weather by CustomWeather, © 2023

Note: Actual official high and low records may vary slightly from our data, if they occured in-between our weather recording intervals... More about our weather records

Austin Weather History for December 1, 2018

Scroll right to see more
 ConditionsComfort  
Time TempWeatherWind HumidityBarometerVisibility
12:09 am
Sat, Dec 1
64 °FLight rain. Overcast.9 mph75%29.70 "Hg5 mi
12:51 am61 °FPartly cloudy.No wind83%29.68 "Hg10 mi
1:51 am59 °FPassing clouds.No wind87%29.67 "Hg10 mi
2:51 am60 °FClear.No wind72%29.65 "Hg10 mi
3:51 am56 °FClear.No wind81%29.65 "Hg10 mi
4:51 am60 °FClear.5 mph56%29.64 "Hg10 mi
5:51 am61 °FClear.7 mph46%29.65 "Hg10 mi
6:51 am61 °FClear.6 mph42%29.68 "Hg10 mi
7:51 am62 °FSunny.5 mph38%29.70 "Hg10 mi
8:51 am65 °FSunny.7 mph36%29.72 "Hg10 mi
9:51 am69 °FSunny.5 mph31%29.72 "Hg10 mi
10:51 am72 °FSunny.7 mph27%29.72 "Hg10 mi
11:51 am73 °FSunny.10 mph24%29.69 "Hg10 mi
12:51 pm76 °FSunny.6 mph21%29.66 "Hg10 mi
1:51 pm77 °FSunny.9 mph19%29.63 "Hg10 mi
2:51 pm77 °FSunny.8 mph17%29.62 "Hg10 mi
3:51 pm77 °FSunny.5 mph18%29.62 "Hg10 mi
4:51 pm73 °FSunny.3 mph24%29.62 "Hg10 mi
5:51 pm67 °FClear.No wind32%29.64 "Hg10 mi
6:51 pm63 °FClear.3 mph34%29.66 "Hg10 mi
7:51 pm59 °FClear.No wind44%29.68 "Hg10 mi
8:51 pm58 °FClear.No wind44%29.70 "Hg10 mi
9:51 pm54 °FClear.No wind59%29.72 "Hg10 mi
10:51 pm57 °FClear.No wind44%29.73 "Hg10 mi
11:51 pm52 °FClear.No wind57%29.73 "Hg10 mi
Weather by CustomWeather, © 2023

See weather overview